Hlavní strana
METAR-TAF:

METAR-TAF

Letiště :

Gastonia Municipal Airport

Gastonia, Severní Karolína, Spojené státy americké

zeměpisná šířka: 35-11-48N, zeměpisná délka: 081-09-21W, výška: 243 m

Aktuální stav počasí

Zpráva byla vytvořena před 18 minutami, v 11:04 UTC
Jihozápadní vítr 4 kt
Teplota 21°C
Vlhkost vzduchu 88%
Tlak 1021 hPa
Viditelnost: 6.4 km
Jasno
kouřmo

METAR: KAKH 241104Z AUTO 23004KT 4SM BR CLR 21/19 A3014 RMK AO2 T02110189

Čas: 07:22 (11:22 UTC)


TAF: chybějící

Stav a předpovědi počasí z více než 4 000 letišť (zprávy METAR a TAF).

Červené a žluté tečky na mapě představují dostupné meteorologické stanice.

Když kurzor umístíte na tečku, zobrazí se název stanice.

Pak kliknutím zobrazíte stav a předpověď počasí.

Chcete-li změnit mapu, kliknutím na zelené tlačítko se znaménkem +mapu přiblížíte, kliknutím na zelené tlačítko se znaménkem – mapu oddálíte a kliknutím na zelené šipky přejdete na sousední mapy.


METAR-TAF: